TX65 weather

Beechwood Heliport
Fort Worth, Texas, United States

Public forecast

Using degrees Fahrenheit for public forecast. Weather courtesy of forecast.io.

METAR (pilot weather report)

Closest report is Fort Worth Alliance Airport, 2.6 nm (4.9 km) SW. Retrieved 2019/09/24 07:53 UTC (40 minutes ago):

KAFW 240753Z 18009KT 10SM FEW050 27/22 A2994 RMK AO2 SLP121 T02670217

TAF (pilot weather forecast)

Closest forecast is Fort Worth Alliance Airport, 2.6 nm (4.9 km) SW. Retrieved 2019/09/24 06:22 UTC (2 hours ago):

TAF KAFW 240520Z 2406/2506 14008KT P6SM FEW050 BKN100 FM242100 16009KT P6SM VCTS BKN060CB FM250000 15009KT P6SM BKN100